createdAt,value
2023-04-12T00:05:09.698Z,7.87
2023-04-12T00:15:12.670Z,8.06
2023-04-12T00:25:16.710Z,7.94
2023-04-12T00:35:19.525Z,7.89
2023-04-12T00:45:26.610Z,8.02
2023-04-12T00:55:29.342Z,8.14
2023-04-12T01:05:38.893Z,8.07
2023-04-12T01:15:49.894Z,8.31
2023-04-12T01:26:13.155Z,8.28
2023-04-12T01:36:21.890Z,8.39
2023-04-12T01:46:24.792Z,8.38
2023-04-12T01:56:33.160Z,8.70
2023-04-12T02:06:35.998Z,8.53
2023-04-12T02:16:42.215Z,8.55
2023-04-12T02:26:44.935Z,8.68
2023-04-12T02:36:49.718Z,8.70
2023-04-12T02:46:52.368Z,8.83
2023-04-12T02:56:56.356Z,8.71
2023-04-12T03:06:59.040Z,8.50
2023-04-12T03:17:03.176Z,8.44
2023-04-12T03:27:06.930Z,8.37
2023-04-12T03:37:10.925Z,8.17
2023-04-12T03:47:13.680Z,8.13
2023-04-12T03:57:17.647Z,8.24
2023-04-12T04:07:21.459Z,8.42
2023-04-12T04:17:25.500Z,8.44
2023-04-12T04:27:30.533Z,8.68
2023-04-12T04:37:35.270Z,8.56
2023-04-12T04:47:37.915Z,8.66
2023-04-12T04:57:42.097Z,8.90
2023-04-12T05:07:44.988Z,9.29
2023-04-12T05:17:49.098Z,9.31
2023-04-12T05:27:52.829Z,9.06
2023-04-12T05:37:57.058Z,9.12
2023-04-12T05:47:59.730Z,9.16
2023-04-12T05:58:03.769Z,9.20
2023-04-12T06:08:06.550Z,9.45
2023-04-12T06:18:12.819Z,9.91
2023-04-12T06:28:15.732Z,9.80
2023-04-12T06:38:20.031Z,9.68
2023-04-12T06:48:22.676Z,9.94
2023-04-12T06:58:26.661Z,10.00
2023-04-12T07:08:30.332Z,10.07
2023-04-12T07:18:34.714Z,10.04
2023-04-12T07:28:39.054Z,9.85
2023-04-12T07:38:43.249Z,9.88
2023-04-12T07:48:46.171Z,9.83
2023-04-12T07:58:50.290Z,9.83
2023-04-12T08:08:53.001Z,9.89
2023-04-12T08:18:57.620Z,9.81
2023-04-12T08:29:00.878Z,10.06
2023-04-12T08:39:04.989Z,10.00
2023-04-12T08:49:07.677Z,10.12
2023-04-12T08:59:12.196Z,9.93
2023-04-12T09:09:15.247Z,10.06
2023-04-12T09:19:32.359Z,10.15
2023-04-12T09:29:35.318Z,10.01
2023-04-12T09:39:40.610Z,9.41
2023-04-12T09:49:44.878Z,9.44
2023-04-12T09:59:51.183Z,9.55
2023-04-12T10:09:54.178Z,9.72
2023-04-12T10:19:59.052Z,9.62
2023-04-12T10:30:20.087Z,9.70
2023-04-12T10:40:24.161Z,9.83
2023-04-12T10:50:30.043Z,10.09
2023-04-12T11:01:06.076Z,10.38
2023-04-12T11:11:22.349Z,10.97
2023-04-12T11:21:26.307Z,11.32
2023-04-12T11:31:30.291Z,13.03
2023-04-12T11:41:33.004Z,13.58
2023-04-12T11:51:37.009Z,13.64
2023-04-12T12:01:40.257Z,13.11
2023-04-12T12:11:44.536Z,14.19
2023-04-12T12:21:47.247Z,13.45
2023-04-12T12:31:51.989Z,13.98
2023-04-12T12:41:56.039Z,15.13
2023-04-12T12:52:00.271Z,15.53
2023-04-12T13:02:03.126Z,14.70
2023-04-12T13:12:07.308Z,17.10
2023-04-12T13:22:09.947Z,18.32
2023-04-12T13:32:14.154Z,17.04
2023-04-12T13:42:16.845Z,17.08
2023-04-12T13:52:20.892Z,16.88
2023-04-12T14:02:23.645Z,20.49
2023-04-12T14:12:27.655Z,16.96
2023-04-12T14:22:30.528Z,18.50
2023-04-12T14:32:34.728Z,17.55
2023-04-12T14:42:37.647Z,15.46
2023-04-12T14:52:41.795Z,13.26
2023-04-12T15:02:46.247Z,9.46
2023-04-12T15:12:50.746Z,8.68
2023-04-12T15:22:53.376Z,9.57
2023-04-12T15:32:58.188Z,10.51
2023-04-12T15:43:00.938Z,10.60
2023-04-12T15:53:04.935Z,10.66
2023-04-12T16:03:09.083Z,10.67
2023-04-12T16:13:13.640Z,10.53
2023-04-12T16:23:16.568Z,10.39
2023-04-12T16:33:20.526Z,10.53
2023-04-12T16:43:23.174Z,10.56
2023-04-12T16:53:27.223Z,10.42
2023-04-12T17:03:30.247Z,10.24
2023-04-12T17:13:34.432Z,10.34
2023-04-12T17:23:37.347Z,10.36
2023-04-12T17:33:42.086Z,10.03
2023-04-12T17:43:47.109Z,9.88
2023-04-12T17:53:51.272Z,10.03
2023-04-12T18:03:54.156Z,9.83
2023-04-12T18:13:58.560Z,9.75
2023-04-12T18:24:02.201Z,9.48
2023-04-12T18:34:06.302Z,9.25
2023-04-12T18:44:11.111Z,9.09
2023-04-12T18:54:17.388Z,9.07
2023-04-12T19:04:20.085Z,9.19
2023-04-12T19:14:25.153Z,9.18
2023-04-12T19:24:27.843Z,9.14
2023-04-12T19:34:31.884Z,8.97
2023-04-12T19:44:34.805Z,8.82
2023-04-12T19:54:39.477Z,8.77
2023-04-12T20:04:42.333Z,8.58
2023-04-12T20:14:46.592Z,8.38
2023-04-12T20:24:49.471Z,8.21
2023-04-12T20:34:53.493Z,8.06
2023-04-12T20:44:56.909Z,7.94
2023-04-12T20:55:00.923Z,7.74
2023-04-12T21:05:03.592Z,7.56
2023-04-12T21:15:11.563Z,7.49
2023-04-12T21:25:16.474Z,7.19
2023-04-12T21:35:22.354Z,7.03
2023-04-12T21:45:27.295Z,6.85
2023-04-12T21:55:31.455Z,6.74
2023-04-12T22:05:35.875Z,6.73
2023-04-12T22:15:40.484Z,6.54
2023-04-12T22:25:43.915Z,6.48
2023-04-12T22:35:48.489Z,6.34
2023-04-12T22:45:54.122Z,6.36
2023-04-12T22:55:58.511Z,6.30
2023-04-12T23:06:01.133Z,6.07
2023-04-12T23:16:06.117Z,5.92
2023-04-12T23:26:10.054Z,5.77
2023-04-12T23:36:14.490Z,5.54
2023-04-12T23:46:17.234Z,5.63
2023-04-12T23:56:21.280Z,5.61
